createdAt,value
2019-03-21T00:02:25.791Z,13.98
2019-03-21T00:04:58.912Z,15.60
2019-03-21T00:07:30.228Z,15.68
2019-03-21T00:10:30.676Z,13.45
2019-03-21T00:13:02.090Z,13.48
2019-03-21T00:15:53.185Z,12.50
2019-03-21T00:18:25.810Z,12.40
2019-03-21T00:20:57.673Z,12.82
2019-03-21T00:23:29.115Z,14.15
2019-03-21T00:28:33.344Z,14.87
2019-03-21T00:31:04.499Z,14.93
2019-03-21T00:33:36.769Z,15.03
2019-03-21T00:36:09.218Z,16.32
2019-03-21T00:38:40.434Z,16.67
2019-03-21T00:41:11.481Z,16.05
2019-03-21T00:43:42.750Z,15.28
2019-03-21T00:46:13.939Z,15.28
2019-03-21T00:48:45.046Z,14.47
2019-03-21T00:51:16.266Z,15.93
2019-03-21T00:53:48.426Z,15.50
2019-03-21T00:56:19.779Z,14.93
2019-03-21T00:58:51.298Z,14.87
2019-03-21T01:01:22.784Z,15.83
2019-03-21T01:03:54.294Z,14.98
2019-03-21T01:06:25.746Z,14.65
2019-03-21T01:08:57.405Z,13.70
2019-03-21T01:11:29.879Z,15.05
2019-03-21T01:14:01.342Z,17.35
2019-03-21T01:16:32.684Z,15.98
2019-03-21T01:19:04.010Z,18.10
2019-03-21T01:21:36.416Z,22.45
2019-03-21T01:24:07.661Z,27.10
2019-03-21T01:26:39.103Z,33.42
2019-03-21T01:29:10.347Z,33.10
2019-03-21T01:31:41.697Z,31.20
2019-03-21T01:34:14.076Z,28.90
2019-03-21T01:36:45.159Z,20.70
2019-03-21T01:39:16.482Z,19.00
2019-03-21T01:41:48.942Z,19.00
2019-03-21T01:44:20.396Z,19.82
2019-03-21T01:46:51.540Z,20.05
2019-03-21T01:49:22.785Z,18.80
2019-03-21T01:51:54.244Z,17.17
2019-03-21T01:54:25.827Z,20.02
2019-03-21T01:56:57.037Z,20.15
2019-03-21T01:59:28.076Z,20.92
2019-03-21T02:01:59.504Z,20.95
2019-03-21T02:04:31.987Z,21.90
2019-03-21T02:07:04.968Z,21.48
2019-03-21T02:09:36.067Z,24.40
2019-03-21T02:12:07.493Z,21.42
2019-03-21T02:14:38.596Z,21.35
2019-03-21T02:17:09.577Z,20.70
2019-03-21T02:19:41.058Z,21.70
2019-03-21T02:22:12.129Z,21.68
2019-03-21T02:24:43.430Z,21.30
2019-03-21T02:27:15.858Z,21.50
2019-03-21T02:29:47.162Z,22.10
2019-03-21T02:32:19.551Z,23.60
2019-03-21T02:34:51.905Z,23.32
2019-03-21T02:37:23.199Z,23.12
2019-03-21T02:39:59.820Z,23.77
2019-03-21T02:42:27.787Z,22.73
2019-03-21T02:45:08.257Z,24.90
2019-03-21T02:47:32.118Z,25.23
2019-03-21T02:50:04.876Z,25.37
2019-03-21T02:52:36.076Z,25.17
2019-03-21T02:55:09.704Z,25.92
2019-03-21T02:57:41.721Z,25.25
2019-03-21T03:00:18.954Z,27.25
2019-03-21T03:02:51.060Z,27.10
2019-03-21T03:05:25.630Z,26.70
2019-03-21T03:07:57.064Z,29.20
2019-03-21T03:10:37.634Z,28.02
2019-03-21T03:13:09.865Z,27.52
2019-03-21T03:15:41.675Z,27.02
2019-03-21T03:18:17.544Z,29.98
2019-03-21T03:20:49.879Z,27.30
2019-03-21T03:23:21.060Z,28.73
2019-03-21T03:25:52.347Z,29.67
2019-03-21T03:28:38.887Z,29.90
2019-03-21T03:31:10.552Z,29.67
2019-03-21T03:33:41.774Z,28.55
2019-03-21T03:36:16.196Z,32.05
2019-03-21T03:38:47.358Z,31.15
2019-03-21T03:41:20.378Z,34.23
2019-03-21T03:43:53.216Z,32.17
2019-03-21T03:46:25.599Z,32.78
2019-03-21T03:48:56.733Z,34.88
2019-03-21T03:51:27.815Z,34.10
2019-03-21T03:53:59.085Z,34.98
2019-03-21T03:56:30.682Z,34.50
2019-03-21T03:59:07.880Z,32.38
2019-03-21T04:01:39.120Z,34.15
2019-03-21T04:04:10.440Z,33.05
2019-03-21T04:06:41.626Z,34.78
2019-03-21T04:09:12.686Z,34.73
2019-03-21T04:11:45.137Z,35.28
2019-03-21T04:14:16.485Z,32.73
2019-03-21T04:16:48.436Z,32.90
2019-03-21T04:19:19.764Z,30.20
2019-03-21T04:21:51.444Z,29.72
2019-03-21T04:24:22.794Z,29.90
2019-03-21T04:26:54.350Z,27.50
2019-03-21T04:29:25.696Z,28.27
2019-03-21T04:31:57.273Z,29.37
2019-03-21T04:34:29.034Z,28.50
2019-03-21T04:37:01.339Z,27.00
2019-03-21T04:39:33.466Z,29.75
2019-03-21T04:42:06.448Z,26.82
2019-03-21T04:44:37.692Z,26.68
2019-03-21T04:47:09.147Z,25.12
2019-03-21T04:52:14.331Z,23.90
2019-03-21T04:54:45.753Z,22.82
2019-03-21T04:57:17.109Z,22.00
2019-03-21T04:59:48.611Z,23.18
2019-03-21T05:02:20.122Z,20.77
2019-03-21T05:04:52.351Z,20.65
2019-03-21T05:07:23.684Z,19.60
2019-03-21T05:09:57.161Z,19.02
2019-03-21T05:12:29.142Z,23.85
2019-03-21T05:15:02.948Z,19.50
2019-03-21T05:17:34.131Z,20.80
2019-03-21T05:20:14.191Z,17.12
2019-03-21T05:22:44.687Z,15.25
2019-03-21T05:25:16.481Z,13.20
2019-03-21T05:27:49.984Z,15.23
2019-03-21T05:30:24.703Z,14.23
2019-03-21T05:32:56.165Z,14.40
2019-03-21T05:35:31.204Z,14.07
2019-03-21T05:38:03.676Z,15.00
2019-03-21T05:40:38.438Z,14.28
2019-03-21T05:43:16.620Z,14.23
2019-03-21T05:45:48.416Z,12.45
2019-03-21T05:48:20.848Z,13.68
2019-03-21T05:50:52.145Z,13.62
2019-03-21T05:53:23.594Z,12.90
2019-03-21T05:55:55.407Z,13.08
2019-03-21T05:58:31.127Z,12.23
2019-03-21T06:01:09.789Z,11.75
2019-03-21T06:03:50.561Z,10.15
2019-03-21T06:06:31.086Z,10.80
2019-03-21T06:09:04.283Z,10.15
2019-03-21T06:11:35.867Z,10.47
2019-03-21T06:14:07.324Z,10.82
2019-03-21T06:16:38.872Z,10.95
2019-03-21T06:19:14.845Z,10.45
2019-03-21T06:22:04.198Z,9.38
2019-03-21T06:24:53.980Z,10.95
2019-03-21T06:27:29.783Z,10.78
2019-03-21T06:30:00.983Z,11.85
2019-03-21T06:32:32.540Z,11.10
2019-03-21T06:35:04.910Z,11.65
2019-03-21T06:37:36.056Z,10.58
2019-03-21T06:40:07.753Z,10.40
2019-03-21T06:42:39.375Z,10.18
2019-03-21T06:45:12.315Z,12.10
2019-03-21T06:47:44.707Z,10.85
2019-03-21T06:50:16.188Z,11.30
2019-03-21T06:52:47.772Z,11.88
2019-03-21T06:55:19.137Z,12.43
2019-03-21T06:57:50.556Z,10.03
2019-03-21T07:00:21.792Z,10.00
2019-03-21T07:02:53.188Z,8.30
2019-03-21T07:05:26.661Z,9.43
2019-03-21T07:07:57.482Z,7.87
2019-03-21T07:10:28.776Z,8.73
2019-03-21T07:13:01.158Z,9.15
2019-03-21T07:15:34.135Z,10.00
2019-03-21T07:18:05.675Z,8.75
2019-03-21T07:20:41.223Z,17.40
2019-03-21T07:23:12.789Z,6.67
2019-03-21T07:25:44.393Z,7.65
2019-03-21T07:28:15.642Z,9.00
2019-03-21T07:30:48.974Z,7.25
2019-03-21T07:33:20.567Z,7.47
2019-03-21T07:35:51.949Z,6.53
2019-03-21T07:38:24.021Z,5.83
2019-03-21T07:40:56.570Z,4.28
2019-03-21T07:43:28.046Z,3.80
2019-03-21T07:48:33.130Z,5.53
2019-03-21T07:51:04.471Z,5.42
2019-03-21T07:53:36.824Z,4.60
2019-03-21T07:56:08.010Z,5.10
2019-03-21T07:58:39.941Z,5.15
2019-03-21T08:01:12.204Z,6.25
2019-03-21T08:03:44.839Z,6.00
2019-03-21T08:06:16.167Z,6.08
2019-03-21T08:08:47.202Z,6.35
2019-03-21T08:11:20.583Z,5.97
2019-03-21T08:13:52.813Z,5.28
2019-03-21T08:16:24.038Z,6.83
2019-03-21T08:18:55.153Z,6.80
2019-03-21T08:21:27.415Z,6.65
2019-03-21T08:23:59.844Z,62.03
2019-03-21T08:26:31.235Z,6.33
2019-03-21T08:29:10.539Z,6.53
2019-03-21T08:31:45.810Z,6.33
2019-03-21T08:34:35.996Z,7.42
2019-03-21T08:37:11.489Z,6.85
2019-03-21T08:39:51.301Z,6.67
2019-03-21T08:42:24.257Z,5.20
2019-03-21T08:44:57.450Z,4.87
2019-03-21T08:47:33.645Z,4.33
2019-03-21T08:50:10.693Z,4.33
2019-03-21T08:52:41.813Z,4.80
2019-03-21T08:55:15.687Z,4.80
2019-03-21T08:57:47.921Z,5.90
2019-03-21T09:00:21.412Z,8.68
2019-03-21T09:02:54.489Z,41.70
2019-03-21T09:05:26.750Z,5.97
2019-03-21T09:07:58.098Z,6.35
2019-03-21T09:10:30.418Z,6.40
2019-03-21T09:13:01.799Z,7.50
2019-03-21T09:15:34.754Z,7.60
2019-03-21T09:18:06.347Z,6.97
2019-03-21T09:20:40.453Z,13.28
2019-03-21T09:23:12.232Z,8.60
2019-03-21T09:25:44.805Z,8.48
2019-03-21T09:28:16.736Z,6.40
2019-03-21T09:30:50.501Z,29.25
2019-03-21T09:33:21.358Z,7.58
2019-03-21T09:35:54.969Z,8.38
2019-03-21T09:38:27.989Z,6.67
2019-03-21T09:41:04.227Z,6.78
2019-03-21T09:43:38.763Z,6.60
2019-03-21T09:46:12.225Z,8.13
2019-03-21T09:48:44.508Z,6.87
2019-03-21T09:51:30.859Z,7.00
2019-03-21T09:54:14.626Z,8.25
2019-03-21T09:56:52.046Z,6.80
2019-03-21T09:59:23.554Z,6.90
2019-03-21T10:01:54.978Z,7.78
2019-03-21T10:04:27.820Z,6.47
2019-03-21T10:06:59.606Z,6.35
2019-03-21T10:09:33.436Z,5.70
2019-03-21T10:12:05.869Z,5.97
2019-03-21T10:14:37.486Z,6.45
2019-03-21T10:17:08.872Z,8.00
2019-03-21T10:19:40.159Z,8.88
2019-03-21T10:22:11.712Z,11.70
2019-03-21T10:24:43.057Z,13.22
2019-03-21T10:27:14.613Z,8.93
2019-03-21T10:29:49.905Z,7.83
2019-03-21T10:32:21.195Z,7.40
2019-03-21T10:34:54.341Z,8.33
2019-03-21T10:37:25.951Z,7.90
2019-03-21T10:39:57.397Z,8.25
2019-03-21T10:42:28.689Z,7.50
2019-03-21T10:45:03.110Z,7.30
2019-03-21T10:47:35.768Z,8.05
2019-03-21T10:50:07.261Z,8.05
2019-03-21T10:52:39.454Z,10.25
2019-03-21T10:55:10.921Z,8.20
2019-03-21T10:57:43.101Z,6.30
2019-03-21T11:00:14.475Z,6.75
2019-03-21T11:02:45.682Z,6.92
2019-03-21T11:05:17.002Z,5.78
2019-03-21T11:07:48.129Z,5.45
2019-03-21T11:10:19.425Z,5.95
2019-03-21T11:13:00.603Z,6.58
2019-03-21T11:15:35.532Z,5.92
2019-03-21T11:18:06.992Z,5.73
2019-03-21T11:20:39.275Z,5.70
2019-03-21T11:23:11.537Z,6.53
2019-03-21T11:25:46.159Z,9.03
2019-03-21T11:28:17.895Z,8.95
2019-03-21T11:30:51.159Z,8.80
2019-03-21T11:33:22.898Z,8.88
2019-03-21T11:35:54.329Z,9.48
2019-03-21T11:38:28.555Z,9.18
2019-03-21T11:41:01.083Z,10.82
2019-03-21T11:43:32.323Z,9.98
2019-03-21T11:46:04.647Z,10.45
2019-03-21T11:48:36.711Z,8.88
2019-03-21T11:51:12.414Z,9.95
2019-03-21T11:53:47.727Z,9.70
2019-03-21T11:56:23.596Z,8.40
2019-03-21T11:59:03.646Z,8.33
2019-03-21T12:01:44.771Z,8.40
2019-03-21T12:04:25.563Z,8.33
2019-03-21T12:06:56.948Z,8.40
2019-03-21T12:09:30.296Z,8.70
2019-03-21T12:12:15.708Z,8.30
2019-03-21T12:14:52.781Z,9.05
2019-03-21T12:17:24.229Z,9.75
2019-03-21T12:19:57.526Z,9.73
2019-03-21T12:22:30.207Z,10.13
2019-03-21T12:25:02.035Z,26.30
2019-03-21T12:30:11.529Z,9.88
2019-03-21T12:32:44.372Z,11.50
2019-03-21T12:35:15.629Z,11.35
2019-03-21T12:37:46.925Z,11.78
2019-03-21T12:40:18.698Z,10.70
2019-03-21T12:42:50.193Z,9.18
2019-03-21T12:45:24.613Z,9.05
2019-03-21T12:48:04.753Z,9.00
2019-03-21T12:50:36.943Z,10.93
2019-03-21T12:53:08.645Z,13.95
2019-03-21T12:55:40.514Z,13.68
2019-03-21T12:58:20.844Z,12.82
2019-03-21T13:00:53.385Z,15.70
2019-03-21T13:03:24.726Z,17.65
2019-03-21T13:05:58.537Z,19.30
2019-03-21T13:08:33.923Z,16.70
2019-03-21T13:11:04.267Z,14.73
2019-03-21T13:13:35.527Z,12.30
2019-03-21T13:16:07.991Z,12.55
2019-03-21T13:18:39.323Z,13.18
2019-03-21T13:21:10.583Z,10.80
2019-03-21T13:23:41.743Z,8.53
2019-03-21T13:26:14.879Z,7.47
2019-03-21T13:28:47.034Z,6.42
2019-03-21T13:31:22.162Z,6.45
2019-03-21T13:33:56.913Z,7.15
2019-03-21T13:36:28.496Z,7.30
2019-03-21T13:39:02.246Z,8.15
2019-03-21T13:41:36.175Z,7.90
2019-03-21T13:44:08.012Z,9.70
2019-03-21T13:46:40.297Z,7.87
2019-03-21T13:49:13.981Z,9.03
2019-03-21T13:51:51.227Z,8.68
2019-03-21T13:54:23.482Z,9.63
2019-03-21T13:56:56.207Z,9.40
2019-03-21T13:59:27.965Z,9.00
2019-03-21T14:02:00.747Z,10.50
2019-03-21T14:04:32.165Z,10.35
2019-03-21T14:07:03.426Z,10.48
2019-03-21T14:09:36.605Z,9.65
2019-03-21T14:12:08.906Z,10.60
2019-03-21T14:14:40.350Z,9.90
2019-03-21T14:17:22.269Z,10.55
2019-03-21T14:19:52.577Z,10.68
2019-03-21T14:22:30.889Z,10.75
2019-03-21T14:25:03.994Z,10.13
2019-03-21T14:27:35.504Z,11.05
2019-03-21T14:30:09.346Z,10.82
2019-03-21T14:32:40.734Z,10.63
2019-03-21T14:35:15.641Z,11.10
2019-03-21T14:37:49.510Z,11.20
2019-03-21T14:40:20.724Z,10.90
2019-03-21T14:42:53.192Z,12.45
2019-03-21T14:45:25.075Z,12.23
2019-03-21T14:47:56.567Z,11.25
2019-03-21T14:50:30.429Z,12.00
2019-03-21T14:53:03.690Z,13.13
2019-03-21T14:55:46.873Z,13.15
2019-03-21T14:58:10.111Z,13.50
2019-03-21T15:00:44.421Z,14.78
2019-03-21T15:03:18.055Z,16.02
2019-03-21T15:05:51.761Z,13.83
2019-03-21T15:08:23.441Z,14.10
2019-03-21T15:10:55.904Z,14.63
2019-03-21T15:13:28.395Z,13.05
2019-03-21T15:15:59.758Z,12.10
2019-03-21T15:18:31.211Z,10.32
2019-03-21T15:21:02.752Z,10.05
2019-03-21T15:23:40.688Z,10.03
2019-03-21T15:26:10.159Z,12.33
2019-03-21T15:28:42.938Z,10.50
2019-03-21T15:31:15.517Z,9.10
2019-03-21T15:33:47.678Z,9.25
2019-03-21T15:36:19.055Z,11.88
2019-03-21T15:38:51.130Z,12.80
2019-03-21T15:41:28.799Z,12.75
2019-03-21T15:44:02.214Z,12.73
2019-03-21T15:46:38.513Z,13.28
2019-03-21T15:49:09.849Z,12.93
2019-03-21T15:51:46.038Z,11.55
2019-03-21T15:54:17.468Z,12.55
2019-03-21T15:56:50.050Z,12.03
2019-03-21T15:59:21.426Z,12.63
2019-03-21T16:01:53.595Z,13.00
2019-03-21T16:04:27.336Z,14.40
2019-03-21T16:06:58.747Z,18.07
2019-03-21T16:09:29.939Z,16.30
2019-03-21T16:12:01.261Z,13.53
2019-03-21T16:14:36.623Z,11.83
2019-03-21T16:17:09.790Z,14.05
2019-03-21T16:19:43.647Z,15.13
2019-03-21T16:22:19.373Z,14.25
2019-03-21T16:24:51.142Z,13.62
2019-03-21T16:27:28.370Z,14.87
2019-03-21T16:30:08.622Z,15.70
2019-03-21T16:32:42.139Z,17.25
2019-03-21T16:35:13.774Z,17.98
2019-03-21T16:37:49.904Z,15.28
2019-03-21T16:40:22.797Z,15.78
2019-03-21T16:42:53.948Z,15.38
2019-03-21T16:45:36.082Z,15.48
2019-03-21T16:48:11.251Z,15.90
2019-03-21T16:50:43.665Z,15.40
2019-03-21T16:53:16.490Z,14.55
2019-03-21T16:55:48.014Z,15.05
2019-03-21T16:58:19.721Z,15.53
2019-03-21T17:00:51.725Z,14.65
2019-03-21T17:03:24.938Z,14.13
2019-03-21T17:05:59.008Z,14.33
2019-03-21T17:11:09.644Z,15.15
2019-03-21T17:13:42.146Z,16.10
2019-03-21T17:16:15.271Z,18.23
2019-03-21T17:18:47.944Z,19.92
2019-03-21T17:21:21.382Z,21.23
2019-03-21T17:23:52.848Z,21.93
2019-03-21T17:26:24.156Z,23.30
2019-03-21T17:28:55.707Z,21.90
2019-03-21T17:31:27.117Z,22.60
2019-03-21T17:34:00.289Z,23.12
2019-03-21T17:36:34.066Z,20.68
2019-03-21T17:39:09.317Z,19.87
2019-03-21T17:41:43.801Z,19.48
2019-03-21T17:44:15.797Z,18.25
2019-03-21T17:46:47.208Z,17.17
2019-03-21T17:49:20.246Z,17.82
2019-03-21T17:51:52.713Z,15.43
2019-03-21T17:54:24.599Z,15.60
2019-03-21T17:56:55.926Z,14.87
2019-03-21T17:59:28.536Z,15.68
2019-03-21T18:02:02.987Z,14.05
2019-03-21T18:04:37.167Z,13.88
2019-03-21T18:07:09.180Z,13.30
2019-03-21T18:09:47.229Z,14.13
2019-03-21T18:15:07.399Z,16.30
2019-03-21T18:17:38.649Z,17.85
2019-03-21T18:20:10.794Z,17.45
2019-03-21T18:22:42.080Z,17.05
2019-03-21T18:25:14.030Z,18.00
2019-03-21T18:27:46.198Z,15.15
2019-03-21T18:30:17.395Z,17.65
2019-03-21T18:32:48.895Z,21.57
2019-03-21T18:35:20.102Z,19.75
2019-03-21T18:37:51.739Z,18.40
2019-03-21T18:40:23.078Z,16.60
2019-03-21T18:42:55.209Z,15.00
2019-03-21T18:45:26.858Z,18.12
2019-03-21T18:47:58.520Z,19.52
2019-03-21T18:50:30.047Z,17.80
2019-03-21T18:53:01.347Z,18.92
2019-03-21T18:55:33.872Z,16.62
2019-03-21T18:58:06.583Z,16.60
2019-03-21T19:00:39.463Z,16.90
2019-03-21T19:03:11.125Z,14.40
2019-03-21T19:05:42.539Z,14.60
2019-03-21T19:08:14.032Z,13.15
2019-03-21T19:10:47.053Z,12.25
2019-03-21T19:13:21.802Z,11.68
2019-03-21T19:15:53.186Z,11.38
2019-03-21T19:18:24.793Z,9.08
2019-03-21T19:20:55.986Z,10.55
2019-03-21T19:23:27.360Z,11.63
2019-03-21T19:25:58.498Z,9.85
2019-03-21T19:28:29.636Z,9.58
2019-03-21T19:31:00.941Z,9.33
2019-03-21T19:33:32.237Z,9.18
2019-03-21T19:36:03.712Z,9.93
2019-03-21T19:38:35.778Z,12.05
2019-03-21T19:41:08.771Z,11.25
2019-03-21T19:43:40.840Z,11.28
2019-03-21T19:46:16.812Z,10.70
2019-03-21T19:48:50.412Z,10.72
2019-03-21T19:51:21.033Z,9.35
2019-03-21T19:53:52.291Z,9.35
2019-03-21T19:56:24.229Z,9.68
2019-03-21T19:58:55.331Z,9.90
2019-03-21T20:01:26.374Z,9.73
2019-03-21T20:03:57.529Z,9.70
2019-03-21T20:06:28.645Z,10.15
2019-03-21T20:08:59.996Z,10.65
2019-03-21T20:11:31.580Z,11.57
2019-03-21T20:14:04.088Z,12.25
2019-03-21T20:16:35.527Z,14.35
2019-03-21T20:19:07.469Z,17.92
2019-03-21T20:21:47.278Z,17.70
2019-03-21T20:26:44.187Z,13.70
2019-03-21T20:29:15.296Z,12.37
2019-03-21T20:31:46.526Z,17.52
2019-03-21T20:34:18.204Z,18.27
2019-03-21T20:36:49.411Z,17.75
2019-03-21T20:39:21.070Z,16.45
2019-03-21T20:41:52.603Z,15.32
2019-03-21T20:44:24.093Z,13.70
2019-03-21T20:46:55.894Z,13.43
2019-03-21T20:49:28.766Z,12.95
2019-03-21T20:51:59.903Z,11.83
2019-03-21T20:54:31.017Z,11.63
2019-03-21T20:57:03.075Z,12.58
2019-03-21T20:59:34.254Z,13.35
2019-03-21T21:02:05.484Z,13.85
2019-03-21T21:04:36.680Z,13.65
2019-03-21T21:07:07.925Z,13.53
2019-03-21T21:09:39.133Z,12.80
2019-03-21T21:12:10.269Z,11.90
2019-03-21T21:14:41.633Z,11.30
2019-03-21T21:17:13.316Z,10.82
2019-03-21T21:19:44.512Z,10.60
2019-03-21T21:22:15.764Z,11.40
2019-03-21T21:24:46.936Z,18.85
2019-03-21T21:27:18.247Z,16.42
2019-03-21T21:29:50.026Z,15.13
2019-03-21T21:32:22.591Z,15.28
2019-03-21T21:34:54.753Z,13.15
2019-03-21T21:37:26.098Z,13.25
2019-03-21T21:39:57.711Z,13.72
2019-03-21T21:42:29.125Z,13.83
2019-03-21T21:45:00.497Z,14.38
2019-03-21T21:47:36.156Z,14.33
2019-03-21T21:50:10.225Z,14.65
2019-03-21T21:55:15.790Z,11.65
2019-03-21T21:57:48.262Z,9.25
2019-03-21T22:00:22.884Z,10.00
2019-03-21T22:02:54.273Z,10.10
2019-03-21T22:05:26.296Z,11.28
2019-03-21T22:07:59.696Z,9.63
2019-03-21T22:10:31.171Z,11.97
2019-03-21T22:13:02.705Z,12.80
2019-03-21T22:15:34.122Z,16.87
2019-03-21T22:18:05.611Z,21.95
2019-03-21T22:20:38.704Z,23.62
2019-03-21T22:23:11.669Z,25.72
2019-03-21T22:25:43.032Z,23.80
2019-03-21T22:28:14.250Z,20.70
2019-03-21T22:30:45.470Z,19.40
2019-03-21T22:33:16.801Z,18.60
2019-03-21T22:35:49.438Z,18.15
2019-03-21T22:38:20.611Z,17.50
2019-03-21T22:40:51.792Z,17.55
2019-03-21T22:43:23.124Z,17.37
2019-03-21T22:45:54.772Z,18.35
2019-03-21T22:48:26.242Z,16.97
2019-03-21T22:50:59.310Z,17.62
2019-03-21T22:53:31.340Z,19.82
2019-03-21T22:56:03.036Z,19.10
2019-03-21T22:58:36.745Z,18.65
2019-03-21T23:01:08.598Z,18.82
2019-03-21T23:03:39.842Z,19.30
2019-03-21T23:06:11.305Z,18.73
2019-03-21T23:08:42.650Z,19.05
2019-03-21T23:11:14.363Z,18.05
2019-03-21T23:13:47.495Z,18.37
2019-03-21T23:16:20.087Z,20.35
2019-03-21T23:18:57.596Z,16.85
2019-03-21T23:21:28.724Z,29.25
2019-03-21T23:23:59.961Z,28.77
2019-03-21T23:26:31.141Z,28.80
2019-03-21T23:29:02.536Z,25.05
2019-03-21T23:31:34.085Z,22.55
2019-03-21T23:34:05.822Z,19.50
2019-03-21T23:36:38.032Z,18.75
2019-03-21T23:39:10.204Z,17.30
2019-03-21T23:41:42.120Z,16.90
2019-03-21T23:44:13.882Z,16.37
2019-03-21T23:46:45.938Z,16.02
2019-03-21T23:49:17.367Z,17.40
2019-03-21T23:51:48.787Z,17.57
2019-03-21T23:54:20.072Z,17.92
2019-03-21T23:56:51.369Z,17.85
2019-03-21T23:59:23.904Z,17.32
